Time;durP1;ratioP1;P1;durP2;ratioP2;P2;SDS_P1;SDS_P2;PMS_P1;PMS_P2;Temp;Humidity;BMP_temperature;BMP_pressure;BME280_temperature;BME280_humidity;BME280_pressure;Samples;Min_cycle;Max_cycle;Signal;HPM_P1;HPM_P2
2023/10/24 00:01:51;;;;;;;7.53;6.40;;;;;;;;;;5027079;28;20249;-77
2023/10/24 00:04:18;;;;;;;13.53;7.30;;;;;;;;;;5034140;28;20238;-76
2023/10/24 00:06:46;;;;;;;7.63;6.70;;;;;;;;;;5013818;28;20261;-77
2023/10/24 00:09:13;;;;;;;7.63;6.10;;;;;;;;;;5029952;28;20215;-77
2023/10/24 00:11:40;;;;;;;6.63;5.83;;;;;;;;;;5039245;28;20206;-76
2023/10/24 00:14:08;;;;;;;8.77;5.90;;;;;;;;;;5032010;28;20268;-76
2023/10/24 00:16:35;;;;;;;7.20;5.20;;;;;;;;;;5026220;28;20221;-80
2023/10/24 00:19:03;;;;;;;5.60;4.70;;;;;;;;;;5032717;28;20202;-78
2023/10/24 00:21:30;;;;;;;6.67;4.83;;;;;;;;;;5028272;28;20280;-79
2023/10/24 00:23:57;;;;;;;5.13;4.70;;;;;;;;;;5032046;28;20218;-75
2023/10/24 00:26:25;;;;;;;4.03;3.70;;;;;;;;;;5032514;28;20207;-75
2023/10/24 00:28:52;;;;;;;4.27;3.87;;;;;;;;;;5032660;28;20210;-76
2023/10/24 00:31:19;;;;;;;4.50;3.60;;;;;;;;;;5032766;28;20694;-76
2023/10/24 00:33:46;;;;;;;5.43;3.70;;;;;;;;;;5032609;28;20309;-75
2023/10/24 00:36:14;;;;;;;3.33;3.03;;;;;;;;;;5032540;28;20268;-75
2023/10/24 00:38:42;;;;;;;3.50;3.20;;;;;;;;;;5014729;28;20297;-74
2023/10/24 00:41:10;;;;;;;3.33;3.03;;;;;;;;;;5031880;28;20235;-75
2023/10/24 00:43:37;;;;;;;3.77;3.40;;;;;;;;;;5014483;28;20202;-76
2023/10/24 00:46:05;;;;;;;5.07;3.10;;;;;;;;;;5032107;28;20231;-76
2023/10/24 00:48:33;;;;;;;6.90;3.40;;;;;;;;;;5032047;28;20290;-77
2023/10/24 00:51:01;;;;;;;4.13;3.40;;;;;;;;;;5031765;28;20227;-76
2023/10/24 00:53:29;;;;;;;5.77;4.13;;;;;;;;;;5031978;28;20559;-75
2023/10/24 00:55:56;;;;;;;6.53;5.80;;;;;;;;;;5014823;28;20211;-74
2023/10/24 00:58:24;;;;;;;7.00;6.30;;;;;;;;;;5032191;28;20206;-76
2023/10/24 01:00:51;;;;;;;8.07;6.37;;;;;;;;;;5031856;28;20228;-76
2023/10/24 01:03:19;;;;;;;6.57;4.50;;;;;;;;;;5031748;28;20209;-76
2023/10/24 01:05:47;;;;;;;5.20;4.63;;;;;;;;;;5031638;28;20225;-75
2023/10/24 01:08:15;;;;;;;5.87;4.17;;;;;;;;;;5031623;28;20203;-75
2023/10/24 01:10:42;;;;;;;3.97;3.63;;;;;;;;;;5031373;28;20278;-75
2023/10/24 01:13:10;;;;;;;4.43;3.50;;;;;;;;;;5031137;28;20714;-75
2023/10/24 01:15:37;;;;;;;5.03;3.60;;;;;;;;;;5031814;28;20237;-75
2023/10/24 01:18:05;;;;;;;3.97;3.67;;;;;;;;;;5032174;28;20689;-76
2023/10/24 01:20:32;;;;;;;4.03;3.60;;;;;;;;;;5014095;28;20699;-76
2023/10/24 01:23:00;;;;;;;4.20;3.60;;;;;;;;;;5013940;28;20227;-75
2023/10/24 01:25:29;;;;;;;3.40;3.10;;;;;;;;;;5031590;28;20210;-76
2023/10/24 01:27:57;;;;;;;4.63;3.17;;;;;;;;;;5031625;28;20209;-76
2023/10/24 01:30:24;;;;;;;5.83;4.10;;;;;;;;;;5031152;28;20233;-74
2023/10/24 01:32:51;;;;;;;5.37;4.30;;;;;;;;;;5031513;28;20422;-75
2023/10/24 01:35:19;;;;;;;4.73;4.33;;;;;;;;;;5031320;28;20211;-74
2023/10/24 01:37:46;;;;;;;4.27;3.87;;;;;;;;;;5033374;28;20824;-76
2023/10/24 01:40:14;;;;;;;6.17;4.20;;;;;;;;;;5025229;28;20227;-76
2023/10/24 01:42:41;;;;;;;4.80;4.40;;;;;;;;;;5029234;28;20234;-78
2023/10/24 01:45:08;;;;;;;5.13;4.60;;;;;;;;;;5037024;28;20293;-77
2023/10/24 01:47:36;;;;;;;5.67;4.50;;;;;;;;;;5035759;28;20643;-76
2023/10/24 01:50:03;;;;;;;5.77;5.03;;;;;;;;;;5011035;28;20254;-78
2023/10/24 01:52:32;;;;;;;5.33;4.27;;;;;;;;;;5034150;28;20214;-76
2023/10/24 01:54:59;;;;;;;4.10;3.80;;;;;;;;;;5022495;28;20199;-76
2023/10/24 01:57:26;;;;;;;7.53;4.50;;;;;;;;;;5028420;28;20202;-77
2023/10/24 01:59:54;;;;;;;5.47;3.97;;;;;;;;;;5024613;28;20231;-77
2023/10/24 02:02:21;;;;;;;4.03;3.73;;;;;;;;;;5034232;28;20222;-78
2023/10/24 02:04:48;;;;;;;5.03;4.60;;;;;;;;;;5028734;28;20210;-77
2023/10/24 02:07:16;;;;;;;4.93;4.37;;;;;;;;;;5033640;28;20205;-76
2023/10/24 02:09:43;;;;;;;4.70;4.20;;;;;;;;;;5026406;28;20227;-77
2023/10/24 02:12:10;;;;;;;6.10;4.20;;;;;;;;;;5029083;28;20709;-77
2023/10/24 02:14:38;;;;;;;5.87;4.37;;;;;;;;;;5042250;28;20202;-76
2023/10/24 02:17:06;;;;;;;5.00;4.50;;;;;;;;;;5014543;28;20211;-77
2023/10/24 02:19:33;;;;;;;6.27;4.67;;;;;;;;;;5033445;28;20230;-77
2023/10/24 02:22:00;;;;;;;22.47;12.73;;;;;;;;;;5020540;28;20227;-75
2023/10/24 02:24:28;;;;;;;18.33;10.53;;;;;;;;;;5023555;28;20623;-75
2023/10/24 02:26:55;;;;;;;12.63;7.87;;;;;;;;;;5030118;28;20264;-76
2023/10/24 02:29:22;;;;;;;7.83;6.00;;;;;;;;;;5042856;28;20211;-76
2023/10/24 02:31:50;;;;;;;6.53;5.33;;;;;;;;;;5034118;28;20202;-75
2023/10/24 02:34:17;;;;;;;5.30;4.67;;;;;;;;;;5034932;28;20214;-76
2023/10/24 02:36:44;;;;;;;7.10;4.40;;;;;;;;;;5025488;28;20210;-77
2023/10/24 02:39:12;;;;;;;5.20;4.70;;;;;;;;;;5017932;28;20207;-78
2023/10/24 02:41:39;;;;;;;5.50;4.57;;;;;;;;;;5032313;28;20226;-77
2023/10/24 02:44:07;;;;;;;6.47;4.60;;;;;;;;;;5015501;28;20196;-77
2023/10/24 02:46:34;;;;;;;4.80;4.40;;;;;;;;;;5044640;28;20718;-76
2023/10/24 02:49:02;;;;;;;5.43;4.50;;;;;;;;;;5035566;28;20207;-78
2023/10/24 02:51:29;;;;;;;5.13;4.70;;;;;;;;;;5035566;28;20230;-78
2023/10/24 02:53:56;;;;;;;7.07;5.40;;;;;;;;;;5023470;28;20804;-78
2023/10/24 02:56:24;;;;;;;8.57;6.53;;;;;;;;;;5029094;28;20213;-77
2023/10/24 02:58:51;;;;;;;11.00;8.33;;;;;;;;;;5011667;28;20212;-77
2023/10/24 03:01:19;;;;;;;9.60;8.23;;;;;;;;;;5034255;28;20308;-78
2023/10/24 03:03:46;;;;;;;9.67;6.93;;;;;;;;;;5032795;28;20218;-77
2023/10/24 03:06:17;;;;;;;7.53;6.00;;;;;;;;;;5025133;28;20254;-78
2023/10/24 03:08:45;;;;;;;6.47;5.87;;;;;;;;;;5034220;28;20225;-77
2023/10/24 03:11:12;;;;;;;6.50;5.20;;;;;;;;;;5038263;28;20276;-77
2023/10/24 03:13:39;;;;;;;6.73;5.83;;;;;;;;;;5011697;28;20710;-77
2023/10/24 03:16:07;;;;;;;6.40;5.73;;;;;;;;;;5000829;28;20667;-77
2023/10/24 03:18:35;;;;;;;6.43;5.63;;;;;;;;;;5037180;28;20662;-77
2023/10/24 03:21:05;;;;;;;6.23;5.63;;;;;;;;;;5020811;28;20226;-77
2023/10/24 03:23:32;;;;;;;6.63;5.63;;;;;;;;;;5029020;28;20238;-77
2023/10/24 03:25:59;;;;;;;6.33;5.67;;;;;;;;;;5012588;28;20199;-78
2023/10/24 03:28:27;;;;;;;7.57;6.50;;;;;;;;;;5038993;28;20665;-80
2023/10/24 03:31:05;;;;;;;7.70;5.83;;;;;;;;;;5034889;28;20646;-78
2023/10/24 03:33:32;;;;;;;6.20;5.70;;;;;;;;;;5038459;28;20206;-76
2023/10/24 03:36:00;;;;;;;6.90;6.23;;;;;;;;;;5042468;28;20199;-80
2023/10/24 03:38:27;;;;;;;9.63;7.90;;;;;;;;;;5028364;28;20202;-80
2023/10/24 03:40:55;;;;;;;7.53;6.83;;;;;;;;;;5032346;28;20292;-79
2023/10/24 03:43:22;;;;;;;7.90;6.40;;;;;;;;;;5034682;28;20762;-80
2023/10/24 03:45:50;;;;;;;7.70;6.47;;;;;;;;;;5042645;28;20252;-80
2023/10/24 03:48:17;;;;;;;6.57;5.97;;;;;;;;;;5025960;28;20210;-81
2023/10/24 03:50:45;;;;;;;7.27;6.57;;;;;;;;;;5018203;28;20227;-80
2023/10/24 03:53:12;;;;;;;6.57;5.83;;;;;;;;;;5037923;28;20214;-80
2023/10/24 03:55:39;;;;;;;6.47;5.87;;;;;;;;;;5015432;28;20272;-78
2023/10/24 03:58:07;;;;;;;6.33;5.40;;;;;;;;;;5033090;28;20253;-80
2023/10/24 04:00:34;;;;;;;6.47;5.13;;;;;;;;;;5030569;28;20225;-80
2023/10/24 04:03:02;;;;;;;5.63;5.13;;;;;;;;;;5028179;28;20310;-81
2023/10/24 04:05:32;;;;;;;5.20;4.70;;;;;;;;;;5019723;28;20215;-79
2023/10/24 04:08:01;;;;;;;5.40;4.30;;;;;;;;;;5034276;28;20721;-78
2023/10/24 04:10:28;;;;;;;15.73;8.50;;;;;;;;;;5031900;28;20281;-74
2023/10/24 04:12:56;;;;;;;21.67;12.07;;;;;;;;;;5014578;28;20218;-76
2023/10/24 04:15:23;;;;;;;20.20;10.60;;;;;;;;;;5015619;28;20207;-75
2023/10/24 04:17:51;;;;;;;23.60;11.57;;;;;;;;;;5008567;28;20604;-75
2023/10/24 04:20:18;;;;;;;10.83;7.60;;;;;;;;;;5021708;28;20226;-76
2023/10/24 04:22:48;;;;;;;8.80;6.43;;;;;;;;;;5016161;28;20231;-75
2023/10/24 04:25:16;;;;;;;8.30;6.90;;;;;;;;;;5017404;28;20697;-75
2023/10/24 04:27:43;;;;;;;7.23;6.33;;;;;;;;;;5019364;28;20215;-76
2023/10/24 04:30:11;;;;;;;9.63;6.17;;;;;;;;;;5036812;28;20270;-76
2023/10/24 04:32:38;;;;;;;7.27;6.40;;;;;;;;;;5012583;28;20212;-75
2023/10/24 04:35:06;;;;;;;8.03;6.80;;;;;;;;;;5023611;28;20207;-75
2023/10/24 04:37:33;;;;;;;7.73;6.93;;;;;;;;;;5024506;28;20202;-75
2023/10/24 04:40:01;;;;;;;8.50;7.13;;;;;;;;;;5013229;28;20225;-79
2023/10/24 04:42:28;;;;;;;12.47;7.97;;;;;;;;;;5033272;28;20691;-80
2023/10/24 04:44:55;;;;;;;8.53;7.60;;;;;;;;;;5023316;28;20859;-79
2023/10/24 04:47:23;;;;;;;6.03;5.23;;;;;;;;;;5022772;28;20203;-79
2023/10/24 04:49:50;;;;;;;7.00;5.87;;;;;;;;;;5031668;28;20218;-79
2023/10/24 04:52:17;;;;;;;7.23;5.60;;;;;;;;;;5029644;28;20206;-79
2023/10/24 04:54:45;;;;;;;7.97;5.00;;;;;;;;;;5034981;28;20209;-77
2023/10/24 04:57:12;;;;;;;5.83;5.33;;;;;;;;;;5025812;28;20269;-78
2023/10/24 04:59:39;;;;;;;6.83;6.23;;;;;;;;;;5011044;28;20296;-80
2023/10/24 05:02:06;;;;;;;9.73;8.63;;;;;;;;;;5033338;28;20277;-79
2023/10/24 05:04:34;;;;;;;8.10;7.30;;;;;;;;;;5004937;28;20208;-76
2023/10/24 05:07:01;;;;;;;8.17;7.37;;;;;;;;;;5027808;28;20202;-77
2023/10/24 05:09:28;;;;;;;8.33;7.53;;;;;;;;;;5024062;28;20203;-76
2023/10/24 05:11:56;;;;;;;9.87;8.90;;;;;;;;;;5024535;28;20206;-76
2023/10/24 05:14:23;;;;;;;8.60;7.80;;;;;;;;;;5010462;28;20210;-75
2023/10/24 05:16:51;;;;;;;7.43;6.57;;;;;;;;;;5022140;28;20198;-75
2023/10/24 05:19:18;;;;;;;8.37;7.17;;;;;;;;;;5015193;28;20214;-79
2023/10/24 05:21:45;;;;;;;8.10;7.40;;;;;;;;;;5005153;28;20203;-78
2023/10/24 05:24:12;;;;;;;10.43;8.93;;;;;;;;;;5020639;28;20219;-77
2023/10/24 05:26:40;;;;;;;12.57;11.17;;;;;;;;;;5027586;28;20237;-78
2023/10/24 05:29:07;;;;;;;20.57;15.07;;;;;;;;;;5026264;28;20212;-77
2023/10/24 05:31:34;;;;;;;35.80;22.83;;;;;;;;;;5024809;28;20317;-78
2023/10/24 05:34:02;;;;;;;11.60;9.70;;;;;;;;;;5024010;28;20298;-78
2023/10/24 05:36:31;;;;;;;11.40;9.53;;;;;;;;;;5022482;28;20215;-77
2023/10/24 05:38:58;;;;;;;14.37;11.03;;;;;;;;;;5014399;28;20249;-77
2023/10/24 05:41:25;;;;;;;11.33;9.50;;;;;;;;;;5019459;28;20249;-77
2023/10/24 05:43:53;;;;;;;10.77;9.73;;;;;;;;;;5025043;28;20234;-77
2023/10/24 05:46:20;;;;;;;10.97;9.87;;;;;;;;;;5021246;28;20349;-76
2023/10/24 05:48:47;;;;;;;14.13;9.97;;;;;;;;;;5021212;28;20203;-77
2023/10/24 05:51:25;;;;;;;10.70;9.40;;;;;;;;;;5034037;28;20596;-77
2023/10/24 05:53:53;;;;;;;11.83;8.73;;;;;;;;;;5023641;28;20202;-77
2023/10/24 05:56:20;;;;;;;12.37;9.13;;;;;;;;;;5014363;28;20216;-77
2023/10/24 05:58:47;;;;;;;11.93;9.03;;;;;;;;;;5027281;28;20211;-76
2023/10/24 06:01:15;;;;;;;10.63;9.53;;;;;;;;;;5006769;28;20561;-77
2023/10/24 06:03:42;;;;;;;12.67;9.93;;;;;;;;;;5018943;28;20234;-75
2023/10/24 06:06:10;;;;;;;52.50;24.70;;;;;;;;;;5015637;28;20297;-75
2023/10/24 06:08:37;;;;;;;18.00;11.70;;;;;;;;;;5019245;28;20226;-75
2023/10/24 06:11:05;;;;;;;15.90;11.00;;;;;;;;;;5018750;28;20226;-75
2023/10/24 06:13:32;;;;;;;16.30;12.33;;;;;;;;;;5024433;28;20207;-76
2023/10/24 06:16:08;;;;;;;16.73;14.60;;;;;;;;;;5023732;28;20602;-77
2023/10/24 06:18:35;;;;;;;13.33;11.93;;;;;;;;;;5015717;28;20214;-77
2023/10/24 06:21:06;;;;;;;16.73;13.53;;;;;;;;;;5028172;28;20222;-78
2023/10/24 06:23:33;;;;;;;15.77;14.17;;;;;;;;;;5034135;28;20229;-77
2023/10/24 06:26:01;;;;;;;13.53;11.07;;;;;;;;;;5012605;28;20206;-77
2023/10/24 06:28:28;;;;;;;11.00;9.73;;;;;;;;;;5028343;28;20213;-77
2023/10/24 06:31:00;;;;;;;11.50;10.30;;;;;;;;;;5026719;28;20230;-77
2023/10/24 06:33:29;;;;;;;11.50;9.53;;;;;;;;;;5021012;28;20261;-76
2023/10/24 06:36:00;;;;;;;13.77;10.43;;;;;;;;;;5022964;28;20210;-76
2023/10/24 06:38:27;;;;;;;11.73;9.90;;;;;;;;;;5043808;28;20558;-78
2023/10/24 06:40:55;;;;;;;11.33;8.50;;;;;;;;;;5033986;28;20887;-77
2023/10/24 06:43:26;;;;;;;10.00;9.10;;;;;;;;;;5031333;28;20760;-77
2023/10/24 06:45:56;;;;;;;8.43;7.63;;;;;;;;;;5015241;28;20226;-76
2023/10/24 06:48:23;;;;;;;11.00;8.20;;;;;;;;;;5024586;28;20326;-77
2023/10/24 06:50:51;;;;;;;10.83;8.80;;;;;;;;;;5028559;28;20235;-76
2023/10/24 06:53:18;;;;;;;11.73;10.53;;;;;;;;;;5029376;28;20237;-78
2023/10/24 06:55:45;;;;;;;14.00;11.47;;;;;;;;;;5024372;28;20685;-79
2023/10/24 06:58:12;;;;;;;12.77;11.47;;;;;;;;;;5026680;28;20253;-81
2023/10/24 07:00:40;;;;;;;15.20;12.37;;;;;;;;;;5012361;28;20233;-80
2023/10/24 07:03:08;;;;;;;13.20;11.80;;;;;;;;;;5014576;28;20350;-81
2023/10/24 07:05:35;;;;;;;12.97;11.67;;;;;;;;;;5009682;28;20225;-80
2023/10/24 07:08:03;;;;;;;13.40;11.50;;;;;;;;;;5035456;28;20202;-80
2023/10/24 07:10:33;;;;;;;13.67;11.67;;;;;;;;;;5027980;28;20271;-80
2023/10/24 07:13:01;;;;;;;13.93;11.97;;;;;;;;;;5021916;28;20308;-80
2023/10/24 07:15:28;;;;;;;14.03;12.43;;;;;;;;;;5024926;28;20211;-81
2023/10/24 07:17:55;;;;;;;13.03;11.63;;;;;;;;;;5022919;28;20215;-80
2023/10/24 07:20:23;;;;;;;14.40;11.20;;;;;;;;;;5018804;28;20223;-79
2023/10/24 07:22:50;;;;;;;12.53;11.23;;;;;;;;;;5027594;28;20254;-79
2023/10/24 07:25:17;;;;;;;13.33;9.97;;;;;;;;;;5019656;28;20203;-77
2023/10/24 07:27:45;;;;;;;11.57;10.27;;;;;;;;;;5022586;28;20800;-79
2023/10/24 07:30:12;;;;;;;11.30;9.63;;;;;;;;;;5027149;28;20222;-78
2023/10/24 07:32:39;;;;;;;10.10;9.10;;;;;;;;;;5010897;28;22165;-80
2023/10/24 07:35:08;;;;;;;10.63;9.33;;;;;;;;;;5019346;28;20204;-78
2023/10/24 07:37:36;;;;;;;10.43;9.40;;;;;;;;;;5025970;28;20207;-79
2023/10/24 07:40:03;;;;;;;13.27;9.77;;;;;;;;;;5020527;28;20226;-78
2023/10/24 07:42:31;;;;;;;11.33;10.13;;;;;;;;;;5021842;28;20206;-77
2023/10/24 07:44:59;;;;;;;13.63;11.00;;;;;;;;;;5020177;28;20334;-78
2023/10/24 07:47:27;;;;;;;13.67;11.87;;;;;;;;;;5025548;28;20206;-79
2023/10/24 07:49:55;;;;;;;18.70;12.87;;;;;;;;;;5032424;28;20222;-79
2023/10/24 07:52:22;;;;;;;17.70;13.63;;;;;;;;;;5010978;28;20207;-80
2023/10/24 07:54:50;;;;;;;23.07;14.67;;;;;;;;;;5026387;28;20299;-79
2023/10/24 07:57:17;;;;;;;20.30;13.60;;;;;;;;;;5026818;28;20330;-79
2023/10/24 07:59:44;;;;;;;14.67;12.80;;;;;;;;;;5022643;28;20222;-79
2023/10/24 08:02:12;;;;;;;16.60;12.33;;;;;;;;;;5019795;28;20209;-79
2023/10/24 08:04:39;;;;;;;17.17;12.50;;;;;;;;;;5021864;28;20282;-79
2023/10/24 08:07:07;;;;;;;14.10;12.67;;;;;;;;;;5008398;28;20202;-79
2023/10/24 08:09:35;;;;;;;28.23;17.50;;;;;;;;;;5004287;28;20230;-79
2023/10/24 08:12:02;;;;;;;20.70;14.27;;;;;;;;;;5030862;28;20249;-78
2023/10/24 08:14:30;;;;;;;13.00;9.47;;;;;;;;;;5019921;28;20211;-80
2023/10/24 08:16:58;;;;;;;14.80;10.57;;;;;;;;;;5014520;28;20211;-80
2023/10/24 08:19:25;;;;;;;17.20;10.60;;;;;;;;;;5025060;28;20312;-78
2023/10/24 08:21:52;;;;;;;16.30;13.47;;;;;;;;;;5028428;28;20258;-79
2023/10/24 08:24:21;;;;;;;15.30;10.03;;;;;;;;;;5026941;28;20686;-78
2023/10/24 08:26:48;;;;;;;12.73;10.27;;;;;;;;;;5029831;28;20206;-77
2023/10/24 08:29:35;;;;;;;13.43;9.63;;;;;;;;;;5025150;28;20237;-77
2023/10/24 08:32:02;;;;;;;11.63;8.50;;;;;;;;;;5029862;28;20206;-79
2023/10/24 08:34:37;;;;;;;14.52;11.63;;;;;;;;;;5032869;28;20252;-77
2023/10/24 08:37:05;;;;;;;12.93;9.70;;;;;;;;;;5027972;28;20210;-77
2023/10/24 08:39:32;;;;;;;12.55;9.73;;;;;;;;;;5024585;28;20345;-76
2023/10/24 08:41:59;;;;;;;10.95;9.85;;;;;;;;;;5027559;28;20631;-78
2023/10/24 08:44:27;;;;;;;13.27;9.70;;;;;;;;;;5021973;28;20592;-77
2023/10/24 08:46:55;;;;;;;10.40;9.10;;;;;;;;;;5017535;28;20203;-77
2023/10/24 08:49:23;;;;;;;15.63;9.50;;;;;;;;;;5025715;28;20200;-77
2023/10/24 08:51:51;;;;;;;5.85;5.10;;;;;;;;;;5023937;28;20610;-77
2023/10/24 08:54:19;;;;;;;7.77;4.90;;;;;;;;;;5025648;28;20320;-77
2023/10/24 08:56:46;;;;;;;6.83;4.90;;;;;;;;;;5021640;28;21945;-78
2023/10/24 08:59:14;;;;;;;6.33;4.97;;;;;;;;;;5015502;28;20203;-77
2023/10/24 09:01:42;;;;;;;5.80;5.20;;;;;;;;;;5025592;28;20648;-77
2023/10/24 09:04:09;;;;;;;6.33;5.60;;;;;;;;;;5023593;28;20280;-78
2023/10/24 09:06:38;;;;;;;7.32;6.13;;;;;;;;;;5016434;28;20226;-78
2023/10/24 09:09:05;;;;;;;8.52;7.65;;;;;;;;;;5018377;28;21445;-78
2023/10/24 09:11:57;;;;;;;10.20;6.47;;;;;;;;;;5002894;28;20729;-77
2023/10/24 09:14:25;;;;;;;8.53;6.83;;;;;;;;;;5021778;28;21144;-79
2023/10/24 09:17:05;;;;;;;13.57;12.07;;;;;;;;;;5025373;28;20787;-76
2023/10/24 09:19:32;;;;;;;8.15;7.35;;;;;;;;;;5022113;28;20215;-78
2023/10/24 09:22:00;;;;;;;7.95;6.80;;;;;;;;;;5018995;28;20242;-78
2023/10/24 09:24:36;;;;;;;13.32;8.90;;;;;;;;;;5017111;28;20231;-77
2023/10/24 09:27:04;;;;;;;9.90;8.13;;;;;;;;;;5017376;28;20774;-78
2023/10/24 09:29:32;;;;;;;12.27;9.85;;;;;;;;;;5015644;28;20218;-77
2023/10/24 09:32:00;;;;;;;8.65;5.68;;;;;;;;;;5017993;28;20210;-78
2023/10/24 09:34:28;;;;;;;25.77;15.20;;;;;;;;;;5023053;28;20234;-78
2023/10/24 09:37:06;;;;;;;10.15;6.55;;;;;;;;;;5025748;28;20228;-79
2023/10/24 09:39:49;;;;;;;6.30;4.33;;;;;;;;;;5024027;28;20371;-77
2023/10/24 09:42:22;;;;;;;6.13;3.65;;;;;;;;;;5031945;28;20215;-76
2023/10/24 09:44:56;;;;;;;6.07;3.50;;;;;;;;;;5031660;28;20218;-77
2023/10/24 09:47:24;;;;;;;3.72;3.25;;;;;;;;;;5032633;28;20206;-77
2023/10/24 09:49:57;;;;;;;13.65;11.38;;;;;;;;;;5002728;28;20231;-76
2023/10/24 09:52:25;;;;;;;7.50;6.80;;;;;;;;;;5024756;28;20207;-78
2023/10/24 09:54:55;;;;;;;7.40;5.07;;;;;;;;;;5005506;28;20262;-78
2023/10/24 09:57:23;;;;;;;4.53;3.40;;;;;;;;;;5024237;28;20628;-76
2023/10/24 09:59:57;;;;;;;3.95;3.00;;;;;;;;;;5013281;28;20226;-78
2023/10/24 10:02:25;;;;;;;3.22;2.90;;;;;;;;;;5033634;28;20213;-76
2023/10/24 10:04:53;;;;;;;3.38;3.15;;;;;;;;;;5033185;28;20714;-77
2023/10/24 10:07:21;;;;;;;4.03;3.10;;;;;;;;;;5037463;28;20202;-77
2023/10/24 10:09:52;;;;;;;4.78;3.47;;;;;;;;;;5020007;28;20722;-77
2023/10/24 10:12:20;;;;;;;6.63;6.13;;;;;;;;;;5029846;28;20203;-75
2023/10/24 10:15:03;;;;;;;5.85;4.78;;;;;;;;;;5012862;28;20218;-76
2023/10/24 10:17:43;;;;;;;4.10;3.53;;;;;;;;;;5016421;28;20293;-76
2023/10/24 10:20:15;;;;;;;4.13;3.60;;;;;;;;;;5016953;28;20235;-75
2023/10/24 10:22:42;;;;;;;3.95;3.50;;;;;;;;;;5013610;28;20269;-75
2023/10/24 10:25:29;;;;;;;3.28;2.97;;;;;;;;;;5021563;28;20227;-77
2023/10/24 10:28:15;;;;;;;3.25;2.95;;;;;;;;;;5012699;28;20257;-77
2023/10/24 10:30:58;;;;;;;2.65;2.45;;;;;;;;;;5020011;28;20610;-76
2023/10/24 10:33:45;;;;;;;7.57;4.20;;;;;;;;;;5018932;28;20356;-77
2023/10/24 10:36:15;;;;;;;4.72;2.75;;;;;;;;;;5023480;28;20209;-77
2023/10/24 10:38:47;;;;;;;2.50;2.30;;;;;;;;;;5017068;28;20219;-77
2023/10/24 10:41:23;;;;;;;4.00;3.65;;;;;;;;;;5012017;28;20587;-75
2023/10/24 10:43:55;;;;;;;6.10;5.60;;;;;;;;;;5011696;28;20233;-75
2023/10/24 10:46:25;;;;;;;5.65;5.13;;;;;;;;;;5019402;28;20195;-75
2023/10/24 10:48:59;;;;;;;4.00;3.70;;;;;;;;;;5007055;28;20226;-75
2023/10/24 10:51:28;;;;;;;1.80;1.70;;;;;;;;;;5024559;28;20280;-76
2023/10/24 10:54:02;;;;;;;1.95;1.70;;;;;;;;;;5021872;28;20215;-76
2023/10/24 10:56:30;;;;;;;1.83;1.38;;;;;;;;;;5026566;28;20202;-76
2023/10/24 10:59:07;;;;;;;3.05;1.95;;;;;;;;;;5025458;28;20253;-77
2023/10/24 11:01:53;;;;;;;1.45;1.35;;;;;;;;;;5026665;28;21401;-76
2023/10/24 11:04:21;;;;;;;1.48;1.38;;;;;;;;;;5025036;28;20569;-76
2023/10/24 11:06:56;;;;;;;7.38;6.07;;;;;;;;;;5022194;28;20203;-77
2023/10/24 11:09:28;;;;;;;3.00;2.67;;;;;;;;;;5026578;28;20282;-76
2023/10/24 11:12:14;;;;;;;3.83;3.53;;;;;;;;;;5022707;28;20233;-77
2023/10/24 11:14:42;;;;;;;3.08;2.88;;;;;;;;;;5021718;28;20202;-78
2023/10/24 11:17:09;;;;;;;9.20;7.93;;;;;;;;;;5009987;28;20269;-75
2023/10/24 11:19:37;;;;;;;6.68;5.45;;;;;;;;;;5027690;28;20713;-76
2023/10/24 11:22:04;;;;;;;12.43;9.68;;;;;;;;;;5027773;28;20298;-78
2023/10/24 11:24:31;;;;;;;7.65;6.78;;;;;;;;;;5026585;28;20316;-76
2023/10/24 11:27:04;;;;;;;8.18;5.50;;;;;;;;;;5016281;28;20210;-76
2023/10/24 11:29:31;;;;;;;6.10;5.50;;;;;;;;;;5027396;28;20199;-75
2023/10/24 11:31:59;;;;;;;4.25;3.42;;;;;;;;;;5031240;28;20207;-77
2023/10/24 11:34:26;;;;;;;4.90;4.50;;;;;;;;;;5022701;28;20210;-77
2023/10/24 11:36:53;;;;;;;10.63;9.73;;;;;;;;;;5028885;28;20203;-79
2023/10/24 11:39:21;;;;;;;1.88;1.77;;;;;;;;;;5031427;28;20215;-77
2023/10/24 11:41:48;;;;;;;2.17;1.98;;;;;;;;;;5022372;28;20211;-77
2023/10/24 11:44:17;;;;;;;3.22;1.60;;;;;;;;;;5028476;28;20285;-77
2023/10/24 11:46:45;;;;;;;1.20;1.20;;;;;;;;;;5015997;28;20199;-78
2023/10/24 11:49:12;;;;;;;2.15;1.17;;;;;;;;;;5012237;28;20213;-76
2023/10/24 11:51:40;;;;;;;6.10;4.22;;;;;;;;;;5026394;28;20578;-77
2023/10/24 11:54:07;;;;;;;5.25;3.92;;;;;;;;;;5033716;28;20608;-79
2023/10/24 11:56:35;;;;;;;7.05;4.90;;;;;;;;;;5026290;28;20210;-76
2023/10/24 11:59:03;;;;;;;10.90;7.22;;;;;;;;;;5027328;28;20253;-79
2023/10/24 12:01:33;;;;;;;16.75;9.68;;;;;;;;;;5027472;28;20230;-79
2023/10/24 12:04:01;;;;;;;18.05;9.52;;;;;;;;;;5024639;28;20219;-76
2023/10/24 12:06:30;;;;;;;13.82;8.68;;;;;;;;;;5029139;28;20663;-78
2023/10/24 12:08:58;;;;;;;6.57;4.57;;;;;;;;;;5026032;28;20204;-77
2023/10/24 12:11:25;;;;;;;8.63;5.00;;;;;;;;;;5028025;28;20234;-76
2023/10/24 12:13:56;;;;;;;12.52;7.20;;;;;;;;;;5025322;28;20278;-77
2023/10/24 12:16:27;;;;;;;6.72;6.22;;;;;;;;;;5012416;28;20207;-77
2023/10/24 12:19:06;;;;;;;4.50;4.30;;;;;;;;;;5038239;28;20195;-78
2023/10/24 12:21:33;;;;;;;8.15;7.65;;;;;;;;;;5034657;28;20219;-77
2023/10/24 12:24:03;;;;;;;8.60;8.00;;;;;;;;;;5014692;28;20549;-76
2023/10/24 12:26:30;;;;;;;4.80;4.50;;;;;;;;;;5030651;28;20575;-77
2023/10/24 12:29:00;;;;;;;1.38;1.38;;;;;;;;;;5032878;28;20597;-76
2023/10/24 12:31:28;;;;;;;1.55;1.50;;;;;;;;;;5032383;28;20679;-80
2023/10/24 12:33:55;;;;;;;3.65;3.10;;;;;;;;;;5012866;28;20210;-77
2023/10/24 12:36:23;;;;;;;13.85;10.27;;;;;;;;;;5025054;28;20602;-76
2023/10/24 12:38:51;;;;;;;5.38;4.57;;;;;;;;;;5026996;28;20289;-77
2023/10/24 12:41:18;;;;;;;3.55;3.20;;;;;;;;;;5022330;28;20227;-76
2023/10/24 12:43:49;;;;;;;2.05;1.95;;;;;;;;;;5025611;28;20218;-77
2023/10/24 12:46:16;;;;;;;2.10;2.00;;;;;;;;;;5028410;28;20824;-75
2023/10/24 12:48:43;;;;;;;2.47;2.28;;;;;;;;;;5022467;28;20205;-74
2023/10/24 12:51:28;;;;;;;1.20;0.85;;;;;;;;;;5011115;28;20223;-77
2023/10/24 12:53:55;;;;;;;0.70;0.70;;;;;;;;;;5012093;28;20559;-77
2023/10/24 12:56:22;;;;;;;1.25;1.25;;;;;;;;;;5012907;28;20203;-77
2023/10/24 12:58:50;;;;;;;1.95;1.25;;;;;;;;;;5011533;28;20218;-77
2023/10/24 13:01:18;;;;;;;2.97;2.40;;;;;;;;;;5006933;28;21579;-77
2023/10/24 13:03:47;;;;;;;2.83;2.08;;;;;;;;;;5017028;28;20222;-77
2023/10/24 13:06:15;;;;;;;2.78;2.58;;;;;;;;;;4998043;28;20229;-77
2023/10/24 13:08:43;;;;;;;1.38;1.38;;;;;;;;;;5021382;28;20932;-76
2023/10/24 13:11:10;;;;;;;3.30;3.10;;;;;;;;;;5010919;28;20226;-73
2023/10/24 13:13:37;;;;;;;1.33;1.33;;;;;;;;;;5011239;28;20812;-75
2023/10/24 13:16:05;;;;;;;1.42;1.33;;;;;;;;;;5013584;28;20235;-75
2023/10/24 13:18:41;;;;;;;1.00;1.00;;;;;;;;;;5014769;28;20199;-76
2023/10/24 13:21:09;;;;;;;0.93;0.93;;;;;;;;;;5002493;28;20230;-76
2023/10/24 13:23:36;;;;;;;0.85;0.80;;;;;;;;;;5021185;28;20210;-75
2023/10/24 13:26:04;;;;;;;0.70;0.70;;;;;;;;;;5019945;28;20316;-74
2023/10/24 13:28:32;;;;;;;0.60;0.60;;;;;;;;;;5010190;28;20195;-75
2023/10/24 13:31:01;;;;;;;0.88;0.63;;;;;;;;;;5022450;28;20272;-76
2023/10/24 13:33:45;;;;;;;0.70;0.70;;;;;;;;;;5029987;28;20207;-76
2023/10/24 13:36:33;;;;;;;1.35;0.63;;;;;;;;;;5033090;28;20261;-77
2023/10/24 13:39:04;;;;;;;0.70;0.70;;;;;;;;;;5027989;28;20599;-76
2023/10/24 13:41:32;;;;;;;0.75;0.75;;;;;;;;;;5009865;28;20230;-75
2023/10/24 13:44:00;;;;;;;1.17;0.80;;;;;;;;;;5024953;28;20725;-76
2023/10/24 13:46:28;;;;;;;0.88;0.88;;;;;;;;;;5024844;28;21956;-76
2023/10/24 13:48:57;;;;;;;1.30;1.20;;;;;;;;;;5012175;28;20788;-76
2023/10/24 13:51:25;;;;;;;0.80;0.80;;;;;;;;;;5039477;28;20225;-76
2023/10/24 13:53:53;;;;;;;1.70;1.60;;;;;;;;;;5017643;28;20810;-76
2023/10/24 13:56:20;;;;;;;1.42;1.27;;;;;;;;;;5007975;28;20707;-74
2023/10/24 13:58:48;;;;;;;5.47;4.60;;;;;;;;;;5025683;28;20310;-74
2023/10/24 14:01:15;;;;;;;1.27;1.15;;;;;;;;;;5018472;28;20234;-76
2023/10/24 14:03:43;;;;;;;3.70;2.40;;;;;;;;;;4956318;28;1667060;-75
2023/10/24 14:06:10;;;;;;;7.97;5.87;;;;;;;;;;5035770;28;20591;-76
2023/10/24 14:08:38;;;;;;;2.13;1.63;;;;;;;;;;5031970;28;20202;-78
2023/10/24 14:11:06;;;;;;;4.53;1.20;;;;;;;;;;5041438;28;20226;-73
2023/10/24 14:13:34;;;;;;;9.10;8.20;;;;;;;;;;5025064;28;20306;-75
2023/10/24 14:16:02;;;;;;;1.30;1.20;;;;;;;;;;5014153;28;20218;-74
2023/10/24 14:18:30;;;;;;;3.23;3.00;;;;;;;;;;5031865;28;20214;-74
2023/10/24 14:20:57;;;;;;;2.57;2.40;;;;;;;;;;5030185;28;20326;-74
2023/10/24 14:23:25;;;;;;;1.80;1.70;;;;;;;;;;5025128;28;20668;-74
2023/10/24 14:25:52;;;;;;;9.87;8.30;;;;;;;;;;5032064;28;20225;-74
2023/10/24 14:28:20;;;;;;;6.43;5.20;;;;;;;;;;5025469;28;20205;-74
2023/10/24 14:30:48;;;;;;;16.93;13.83;;;;;;;;;;5032518;28;20223;-75
2023/10/24 14:33:15;;;;;;;1.07;1.00;;;;;;;;;;5026942;28;20203;-78
2023/10/24 14:35:42;;;;;;;1.17;1.13;;;;;;;;;;5018519;28;20706;-75
2023/10/24 14:38:10;;;;;;;7.18;6.03;;;;;;;;;;5015721;28;20212;-75
2023/10/24 14:40:39;;;;;;;3.93;3.10;;;;;;;;;;5022852;28;20268;-74
2023/10/24 14:43:09;;;;;;;42.87;29.40;;;;;;;;;;5020517;28;20203;-75
2023/10/24 14:45:37;;;;;;;7.83;6.00;;;;;;;;;;5019865;28;20324;-75